Tropical Cyclones
[Index]
Main Index Home Page Stock Weather Photos Extreme Storms Discussion Storm News and Storm Chasing Reports Tropical Cyclones / Hurricanes / Typhoons Weather Data and Links Wild Fires / Bushfires Weather Observation Techniques Weather Picture Catalogue Tornado Pictures and Reports Stock Video Footage and DVDs for sale
Season 1988-1989 Tropical Cyclone ILONA Track Map
Season 1988-1989 Summaries: [BoM-AU] [JTWC-AU] [JTWC-SIO] [JTWC-SPAC] [JTWC-SH]
<<- Previous TC | JTWC 1988-1989 Season | Next TC ->>

click for intensity scale information  Lat/long Grid: Show Hide

 Date Labels: Show Hide

Joint Typhoon Warning Centre Cyclone Data

Name: ILONA
Number: 1276 / 8903

12 Dec 1988 06:00 UTC to 18 Dec 1988 00:00 UTC

    date/time    lat    long     hPa   cat  kts
1988-12-12 06   14.0   126.0                  20          
1988-12-12 12   14.8   124.7                  20          
1988-12-12 18   15.5   123.5                  25          
1988-12-13 00   16.2   122.3                  25          
1988-12-13 06   16.4   121.2                  30          
1988-12-13 12   16.5   120.0                  35          
1988-12-13 18   16.3   118.9            1     40          
1988-12-14 00   16.0   117.9            1     45          
1988-12-14 06   16.1   117.1            1     45          
1988-12-14 12   16.1   116.4            1     50          
1988-12-14 18   16.1   116.0            1     50          
1988-12-15 00   16.2   115.8            2     55          
1988-12-15 06   16.3   115.6            2     60          
1988-12-15 12   16.4   115.4            2     60          
1988-12-15 18   16.5   115.2            2     65          
1988-12-16 00   16.7   115.1            2     70          
1988-12-16 06   16.9   115.1            3     75          
1988-12-16 12   17.2   115.1            3     75          
1988-12-16 18   17.7   115.2            3     80          
1988-12-17 00   18.3   115.3            3     85          
1988-12-17 06   19.1   115.7            3     85          
1988-12-17 12   20.2   116.0            3     85          
1988-12-17 18   21.5   116.4            2     65          
1988-12-18 00   22.7   117.0            1     40          
Winds are 1-min average.

Tropical cyclone tracks developed by Michael Bath using data from the Joint Typhoon Warning Centre Best Tracks and Google Maps.


[Australian Severe Weather index] [Copyright Notice] [Email Contacts] [Search This Site] [Privacy Policy]
Document: tropical_cyclone_ilona.htm Updated: 22 May 2013